Flight Track Log - Related Links

Times and Time Zones

All times are in EDT time to prevent confusion due to time zone crossing. See the N479B flight status page for this flight to view local times or setup timezone preferences in your user account.

Time Position Orientation Groundspeed Altitude Reporting Facility
EDT Latitude Longitude Course Direction KTS MPH feet Rate Location/Type
Tue 04:23:49 PM 36.0650 -115.1772 203° Southwest 157 181 3,000  Level Los Angeles Center
Tue 04:24:43 PM 36.0264 -115.1978 203° Southwest 163 188 4,400 1,440 Climbing Los Angeles Center
Tue 04:25:04 PM 36.0133 -115.2047 203° Southwest 165 190 4,800 1,279 Climbing Los Angeles Center
Tue 04:25:44 PM 35.9803 -115.2236 205° Southwest 181 208 5,700 1,258 Climbing Los Angeles Center
Tue 04:26:06 PM 35.9672 -115.2297 201° Southwest 177 204 6,100 1,180 Climbing Los Angeles Center
Tue 04:26:45 PM 35.9306 -115.2133 160° South 206 237 6,900 871 Climbing Los Angeles Center
Tue 04:27:08 PM 35.9119 -115.2011 152° Southeast 207 238 7,000 787 Climbing Los Angeles Center
Tue 04:27:46 PM 35.8853 -115.1647 132° Southeast 237 273 7,700 1,161 Climbing Los Angeles Center
Tue 04:28:10 PM 35.8808 -115.1361 101° East 227 261 8,200 1,475 Climbing Los Angeles Center
Tue 04:28:47 PM 35.8711 -115.0897 104° East 225 259 9,200 1,645 Climbing Los Angeles Center
Tue 04:29:12 PM 35.8769 -115.0572 78° East 220 253 9,900 1,672 Climbing Los Angeles Center
Tue 04:29:48 PM 35.8872 -115.0153 73° East 208 239 10,900 1,548 Climbing Los Angeles Center
Tue 04:30:14 PM 35.8950 -114.9900 69° East 209 241 11,500 1,418 Climbing Los Angeles Center
Tue 04:30:43 PM 35.9039 -114.9539 73° East 209 241 12,200 1,355 Climbing Los Angeles Center
Tue 04:31:16 PM 35.9147 -114.9158 71° East 209 241 12,900 1,263 Climbing Los Angeles Center
Tue 04:32:18 PM 35.9314 -114.8453 74° East 210 242 14,200 1,258 Climbing Los Angeles Center
Tue 04:33:20 PM 35.9492 -114.7747 73° East 211 243 15,500 1,065 Climbing Los Angeles Center
Tue 04:34:22 PM 35.9642 -114.7036 75° East 212 244 16,400 871 Climbing Los Angeles Center
Tue 04:35:24 PM 35.9803 -114.6250 76° East 228 262 17,300 871 Climbing Los Angeles Center
Tue 04:36:26 PM 35.9728 -114.5467 97° East 230 265 18,200 968 Climbing Los Angeles Center
Tue 04:37:28 PM 35.9589 -114.4536 100° East 230 265 19,300 968 Climbing Los Angeles Center
Tue 04:38:30 PM 35.9519 -114.3742 96° East 230 265 20,200 871 Climbing Los Angeles Center
Tue 04:39:32 PM 35.9464 -114.2978 95° East 230 265 21,100 871 Climbing Los Angeles Center
Tue 04:40:34 PM 35.9408 -114.2217 95° East 227 261 22,000 768 Climbing Los Angeles Center
Tue 04:41:37 PM 35.9344 -114.1458 96° East 227 261 22,700 629 Climbing Los Angeles Center
Tue 04:42:38 PM 35.9264 -114.0706 98° East 226 260 23,300 634 Climbing Los Angeles Center
Tue 04:43:40 PM 35.8803 -113.9892 125° Southeast 232 267 24,000 629 Climbing Los Angeles Center
Tue 04:44:42 PM 35.8583 -113.9147 110° East 232 267 24,600 537 Climbing Los Angeles Center
Tue 04:45:43 PM 35.8581 -113.8289 90° East 239 275 25,100 537 Climbing Los Angeles Center
Tue 04:46:45 PM 35.8550 -113.7467 93° East 241 277 25,700 532 Climbing Los Angeles Center
Tue 04:47:47 PM 35.8506 -113.6639 94° East 241 277 26,200 484 Climbing Los Angeles Center
Tue 04:48:49 PM 35.8458 -113.5825 94° East 241 277 26,700 484 Climbing Los Angeles Center
Tue 04:49:51 PM 35.8411 -113.5017 94° East 240 276 27,200 484 Climbing Los Angeles Center
Tue 04:50:53 PM 35.8358 -113.4056 94° East 235 270 27,700 435 Climbing Los Angeles Center
Tue 04:51:55 PM 35.8303 -113.3269 95° East 234 269 28,100 387 Climbing Los Angeles Center
Tue 04:52:57 PM 35.8242 -113.2467 95° East 234 269 28,500 339 Climbing Los Angeles Center
Tue 04:53:59 PM 35.8114 -113.1689 101° East 235 270 28,800 290 Climbing Los Angeles Center
Tue 04:55:01 PM 35.7981 -113.0886 102° East 235 270 29,100 339 Climbing Los Angeles Center
Tue 04:56:03 PM 35.7842 -113.0078 102° East 239 275 29,500 387 Climbing Los Angeles Center
Tue 04:57:05 PM 35.7703 -112.9119 100° East 239 275 29,900 290 Climbing Los Angeles Center
Tue 04:58:07 PM 35.7581 -112.8317 101° East 238 274 30,100 192 Climbing Los Angeles Center
Tue 04:59:10 PM 35.7444 -112.7522 102° East 238 274 30,300 192 Climbing Los Angeles Center
Tue 05:00:12 PM 35.7303 -112.6711 102° East 239 275 30,500 242 Climbing Los Angeles Center
Tue 05:01:14 PM 35.7139 -112.5914 104° East 244 281 30,800 242 Climbing Los Angeles Center
Tue 05:02:16 PM 35.6933 -112.4981 105° East 243 280 31,000 97 Climbing Los Angeles Center
Tue 05:03:18 PM 35.6750 -112.4147 105° East 247 284 31,000  Level Los Angeles Center
Tue 05:04:20 PM 35.6544 -112.3281 106° East 258 297 31,000  Level Los Angeles Center
Tue 05:05:22 PM 35.6311 -112.2406 108° East 263 303 31,000  Level Los Angeles Center
Tue 05:06:24 PM 35.6094 -112.1511 107° East 266 306 31,000  Level Los Angeles Center
Tue 05:07:26 PM 35.5975 -112.0525 98° East 281 323 31,000  Level Los Angeles Center
Tue 05:08:28 PM 35.5950 -111.9286 91° East 293 337 31,000  Level Los Angeles Center
Tue 05:09:31 PM 35.5922 -111.8258 92° East 296 341 31,000  Level Los Angeles Center
Tue 05:10:33 PM 35.5883 -111.7261 93° East 298 343 31,000  Level Los Angeles Center
Tue 05:11:35 PM 35.5864 -111.6217 91° East 300 345 31,000  Level Los Angeles Center
Tue 05:12:37 PM 35.5828 -111.5197 92° East 300 345 31,000  Level Los Angeles Center
Tue 05:13:39 PM 35.5794 -111.3950 92° East 301 346 31,000  Level Los Angeles Center
Tue 05:14:41 PM 35.5756 -111.2903 93° East 302 348 31,000  Level Los Angeles Center
Tue 05:16:07 PM 35.5536 -111.1439 100° East 306 352 31,000  Level Albuquerque Center
Tue 05:17:09 PM 35.5417 -111.0464 99° East 306 352 31,000  Level Albuquerque Center
Tue 05:18:10 PM 35.5258 -110.9300 99° East 307 353 31,000  Level Albuquerque Center
Tue 05:19:12 PM 35.5133 -110.8306 99° East 307 353 31,000  Level Albuquerque Center
Tue 05:20:14 PM 35.5128 -110.7181 90° East 304 350 31,000  Level Albuquerque Center
Tue 05:21:16 PM 35.5097 -110.6178 92° East 304 350 31,000  Level Albuquerque Center
Tue 05:22:18 PM 35.5075 -110.4978 91° East 309 356 31,000  Level Albuquerque Center
Tue 05:23:19 PM 35.5061 -110.3989 91° East 309 356 31,000  Level Albuquerque Center
Tue 05:24:21 PM 35.5036 -110.2803 91° East 309 356 31,000  Level Albuquerque Center
Tue 05:25:23 PM 35.5025 -110.1803 91° East 309 356 31,000  Level Albuquerque Center
Tue 05:26:25 PM 35.5025 -110.0803 90° East 309 356 31,000  Level Albuquerque Center
Tue 05:27:26 PM 35.5039 -109.9650 89° East 307 353 31,000  Level Albuquerque Center
Tue 05:28:28 PM 35.5044 -109.8664 90° East 307 353 31,000  Level Albuquerque Center
Tue 05:29:30 PM 35.4964 -109.7525 95° East 303 349 31,000  Level Albuquerque Center
Tue 05:30:32 PM 35.4817 -109.6542 100° East 303 349 31,000  Level Albuquerque Center
Tue 05:31:33 PM 35.4625 -109.5406 102° East 303 349 31,000  Level Albuquerque Center
Tue 05:32:35 PM 35.4450 -109.4442 103° East 303 349 31,000  Level Albuquerque Center
Tue 05:33:37 PM 35.4236 -109.3308 103° East 303 349 31,000  Level Albuquerque Center
Tue 05:34:38 PM 35.4050 -109.2331 103° East 305 351 31,000  Level Albuquerque Center
Tue 05:35:40 PM 35.3861 -109.1364 103° East 305 351 31,000  Level Albuquerque Center
Tue 05:36:42 PM 35.3664 -109.0208 102° East 306 352 31,000  Level Albuquerque Center
Tue 05:37:44 PM 35.3517 -108.9225 100° East 307 353 31,000  Level Albuquerque Center
Tue 05:38:45 PM 35.3344 -108.8083 100° East 307 353 31,000  Level Albuquerque Center
Tue 05:39:47 PM 35.3186 -108.7094 101° East 307 353 31,000  Level Albuquerque Center
Tue 05:40:49 PM 35.3008 -108.5953 101° East 307 353 31,000  Level Albuquerque Center
Tue 05:41:51 PM 35.2847 -108.4978 101° East 307 353 31,000  Level Albuquerque Center
Tue 05:42:52 PM 35.2611 -108.3844 104° East 307 353 31,000  Level Albuquerque Center
Tue 05:43:54 PM 35.2400 -108.2897 105° East 307 353 31,000  Level Albuquerque Center
Tue 05:44:56 PM 35.2161 -108.1792 105° East 306 352 31,000  Level Albuquerque Center
Tue 05:45:58 PM 35.1964 -108.0833 104° East 305 351 31,000  Level Albuquerque Center
Tue 05:47:00 PM 35.1769 -107.9881 104° East 305 351 31,000  Level Albuquerque Center
Tue 05:48:01 PM 35.1519 -107.8794 106° East 302 348 31,000  Level Albuquerque Center
Tue 05:49:03 PM 35.1300 -107.7864 106° East 302 348 31,000  Level Albuquerque Center
Tue 05:50:05 PM 35.1083 -107.6939 106° East 302 348 31,000  Level Albuquerque Center
Tue 05:51:07 PM 35.0769 -107.5794 108° East 300 345 31,000  Level Albuquerque Center
Tue 05:52:08 PM 35.0483 -107.4769 109° East 300 345 31,000  Level Albuquerque Center
Tue 05:53:10 PM 35.0217 -107.3825 109° East 299 344 31,000  Level Albuquerque Center
Tue 05:54:12 PM 34.9942 -107.2894 110° East 296 341 31,000  Level Albuquerque Center
Tue 05:55:14 PM 34.9606 -107.1906 113° Southeast 295 339 31,000  Level Albuquerque Center
Tue 05:56:16 PM 34.9294 -107.0997 113° Southeast 294 338 31,000  Level Albuquerque Center
Tue 05:57:17 PM 34.8972 -107.0011 112° Southeast 294 338 31,000  Level Albuquerque Center
Tue 05:58:20 PM 34.8653 -106.9094 113° Southeast 294 338 31,000  Level Albuquerque Center
Tue 05:59:21 PM 34.8372 -106.8253 112° Southeast 294 338 31,000  Level Albuquerque Center
Tue 06:00:23 PM 34.8058 -106.7317 112° Southeast 295 339 31,000  Level Albuquerque Center
Tue 06:01:25 PM 34.7683 -106.6194 112° Southeast 297 342 31,000  Level Albuquerque Center
Tue 06:02:27 PM 34.7358 -106.5267 113° Southeast 298 343 31,000  Level Albuquerque Center
Tue 06:03:29 PM 34.7033 -106.4339 113° Southeast 298 343 31,000  Level Albuquerque Center
Tue 06:04:30 PM 34.6731 -106.3422 112° Southeast 298 343 31,000  Level Albuquerque Center
Tue 06:05:32 PM 34.6425 -106.2489 112° Southeast 297 342 31,000  Level Albuquerque Center
Tue 06:06:34 PM 34.6064 -106.1608 116° Southeast 297 342 31,000  Level Albuquerque Center
Tue 06:07:36 PM 34.5661 -106.0578 115° Southeast 297 342 31,000  Level Albuquerque Center
Tue 06:08:38 PM 34.5253 -105.9731 120° Southeast 292 336 31,000  Level Albuquerque Center
Tue 06:09:40 PM 34.4811 -105.8914 123° Southeast 292 336 31,000  Level Albuquerque Center
Tue 06:10:42 PM 34.4342 -105.8122 126° Southeast 291 335 31,000  Level Albuquerque Center
Tue 06:11:44 PM 34.3831 -105.7194 124° Southeast 286 329 31,000  Level Albuquerque Center
Tue 06:12:45 PM 34.3383 -105.6367 123° Southeast 286 329 31,000  Level Albuquerque Center
Tue 06:13:47 PM 34.2908 -105.5547 125° Southeast 289 333 31,000  Level Albuquerque Center
Tue 06:14:49 PM 34.2464 -105.4725 123° Southeast 291 335 31,000  Level Albuquerque Center
Tue 06:15:51 PM 34.2058 -105.3839 119° Southeast 294 338 31,000  Level Albuquerque Center
Tue 06:16:53 PM 34.1850 -105.2872 105° East 294 338 31,000  Level Albuquerque Center
Tue 06:17:55 PM 34.1697 -105.1914 101° East 289 333 31,000  Level Albuquerque Center
Tue 06:18:57 PM 34.1500 -105.0800 102° East 289 333 31,000  Level Albuquerque Center
Tue 06:19:59 PM 34.1333 -104.9842 102° East 289 333 31,000  Level Albuquerque Center
Tue 06:21:01 PM 34.1211 -104.8886 99° East 289 333 31,000  Level Albuquerque Center
Tue 06:22:03 PM 34.1089 -104.7919 99° East 289 333 31,000  Level Albuquerque Center
Tue 06:23:05 PM 34.0992 -104.6928 97° East 292 336 31,000  Level Albuquerque Center
Tue 06:24:07 PM 34.0919 -104.5950 95° East 292 336 31,000  Level Albuquerque Center
Tue 06:25:09 PM 34.0856 -104.4956 94° East 293 337 31,000  Level Albuquerque Center
Tue 06:26:11 PM 34.0775 -104.3817 95° East 292 336 31,000  Level Albuquerque Center
Tue 06:27:13 PM 34.0639 -104.2819 99° East 294 338 31,000  Level Albuquerque Center
Tue 06:28:14 PM 34.0511 -104.1847 99° East 295 339 31,000  Level Albuquerque Center
Tue 06:29:16 PM 34.0364 -104.0861 100° East 295 339 31,000  Level Albuquerque Center
Tue 06:30:18 PM 34.0225 -103.9861 99° East 296 341 31,000  Level Albuquerque Center
Tue 06:31:20 PM 34.0097 -103.8875 99° East 296 341 31,000  Level Albuquerque Center
Tue 06:32:22 PM 33.9961 -103.7889 99° East 296 341 31,000  Level Albuquerque Center
Tue 06:33:24 PM 33.9828 -103.6844 99° East 296 341 31,000  Level Albuquerque Center
Tue 06:34:26 PM 33.9675 -103.5750 100° East 296 341 31,000  Level Albuquerque Center
Tue 06:35:28 PM 33.9531 -103.4783 100° East 296 341 31,000  Level Albuquerque Center
Tue 06:36:30 PM 33.9392 -103.3822 100° East 295 339 31,000  Level Albuquerque Center
Tue 06:37:31 PM 33.9278 -103.2983 99° East 294 338 31,000  Level Albuquerque Center
Tue 06:38:33 PM 33.9122 -103.1814 99° East 294 338 31,000  Level Albuquerque Center
Tue 06:39:35 PM 33.8986 -103.0853 100° East 294 338 31,000  Level Albuquerque Center
Tue 06:40:37 PM 33.8817 -102.9917 102° East 293 337 31,000  Level Albuquerque Center
Tue 06:41:39 PM 33.8689 -102.8956 99° East 293 337 31,000  Level Albuquerque Center
Tue 06:42:41 PM 33.8542 -102.7972 100° East 293 337 31,000  Level Albuquerque Center
Tue 06:43:43 PM 33.8406 -102.7000 100° East 294 338 31,000  Level Albuquerque Center
Tue 06:44:45 PM 33.8233 -102.5836 100° East 294 338 31,000  Level Albuquerque Center
Tue 06:46:16 PM 33.8028 -102.4464 100° East 297 342 31,000  Level Fort Worth Center
Tue 06:47:18 PM 33.7892 -102.3536 100° East 285 328 31,000  Level Fort Worth Center
Tue 06:48:20 PM 33.7758 -102.2647 100° East 277 319 31,000  Level Fort Worth Center
Tue 06:49:23 PM 33.7583 -102.1561 101° East 276 318 31,000  Level Fort Worth Center
Tue 06:50:25 PM 33.7447 -102.0633 100° East 281 323 31,000  Level Fort Worth Center
Tue 06:51:27 PM 33.7308 -101.9689 100° East 285 328 31,000  Level Fort Worth Center
Tue 06:52:29 PM 33.7158 -101.8756 101° East 285 328 31,000  Level Fort Worth Center
Tue 06:53:31 PM 33.7017 -101.7831 100° East 285 328 31,000  Level Fort Worth Center
Tue 06:54:33 PM 33.6867 -101.6883 101° East 287 330 31,000  Level Fort Worth Center
Tue 06:55:36 PM 33.6689 -101.5744 101° East 287 330 31,000  Level Fort Worth Center
Tue 06:56:38 PM 33.6533 -101.4811 101° East 288 331 31,000  Level Fort Worth Center
Tue 06:57:40 PM 33.6400 -101.3867 100° East 287 330 31,000  Level Fort Worth Center
Tue 06:58:43 PM 33.6211 -101.2789 102° East 287 330 31,000  Level Fort Worth Center
Tue 06:59:45 PM 33.6056 -101.1847 101° East 288 331 31,000  Level Fort Worth Center
Tue 07:00:47 PM 33.5914 -101.0889 100° East 288 331 31,000  Level Fort Worth Center
Tue 07:01:49 PM 33.5756 -100.9947 101° East 288 331 31,000  Level Fort Worth Center
Tue 07:02:51 PM 33.5606 -100.8986 101° East 289 333 31,000  Level Fort Worth Center
Tue 07:03:54 PM 33.5442 -100.8036 102° East 290 334 31,000  Level Fort Worth Center
Tue 07:04:56 PM 33.5239 -100.6892 102° East 290 334 31,000  Level Fort Worth Center
Tue 07:05:58 PM 33.5083 -100.5914 101° East 293 337 31,000  Level Fort Worth Center
Tue 07:07:00 PM 33.4911 -100.4972 102° East 293 337 31,000  Level Fort Worth Center
Tue 07:08:02 PM 33.4725 -100.4028 103° East 292 336 31,000  Level Fort Worth Center
Tue 07:09:04 PM 33.4536 -100.3058 103° East 293 337 31,000  Level Fort Worth Center
Tue 07:10:07 PM 33.4356 -100.2086 103° East 294 338 31,000  Level Fort Worth Center
Tue 07:11:09 PM 33.4164 -100.0911 101° East 295 339 31,000  Level Fort Worth Center
Tue 07:12:11 PM 33.4025 -99.9969 100° East 292 336 31,000  Level Fort Worth Center
Tue 07:13:13 PM 33.3919 -99.8983 97° East 293 337 31,000 -97 Level Fort Worth Center
Tue 07:14:15 PM 33.3803 -99.8000 98° East 294 338 30,800 -339 Descending Fort Worth Center
Tue 07:15:17 PM 33.3619 -99.6972 102° East 308 354 30,300 -484 Descending Fort Worth Center
Tue 07:16:19 PM 33.3300 -99.5969 111° Southeast 316 364 29,800 -528 Descending Fort Worth Center
Tue 07:17:22 PM 33.2906 -99.4986 116° Southeast 322 371 29,200 -624 Descending Fort Worth Center
Tue 07:18:24 PM 33.2436 -99.3789 115° Southeast 327 376 28,500 -629 Descending Fort Worth Center
Tue 07:19:26 PM 33.2031 -99.2775 116° Southeast 332 382 27,900 -581 Descending Fort Worth Center
Tue 07:20:28 PM 33.1639 -99.1769 115° Southeast 334 384 27,300 -435 Descending Fort Worth Center
Tue 07:21:30 PM 33.1258 -99.0794 115° Southeast 330 380 27,000 -144 Descending Fort Worth Center
Tue 07:22:33 PM 33.0883 -98.9861 116° Southeast 317 365 27,000  Level Fort Worth Center
Tue 07:23:35 PM 33.0536 -98.8969 115° Southeast 303 349 27,000  Level Fort Worth Center
Tue 07:24:37 PM 33.0128 -98.7906 115° Southeast 296 341 27,000  Level Fort Worth Center
Tue 07:25:39 PM 32.9772 -98.7025 116° Southeast 294 338 27,000  Level Fort Worth Center
Tue 07:26:41 PM 32.9417 -98.6133 115° Southeast 297 342 27,000  Level Fort Worth Center
Tue 07:27:43 PM 32.9058 -98.5244 116° Southeast 298 343 27,000  Level Fort Worth Center
Tue 07:28:46 PM 32.8667 -98.4292 116° Southeast 298 343 27,000  Level Fort Worth Center
Tue 07:29:48 PM 32.8306 -98.3403 116° Southeast 298 343 27,000  Level Fort Worth Center
Tue 07:30:50 PM 32.7953 -98.2511 115° Southeast 299 344 27,000  Level Fort Worth Center
Tue 07:31:52 PM 32.7592 -98.1631 116° Southeast 299 344 27,000 -194 Level Fort Worth Center
Tue 07:32:54 PM 32.7167 -98.0569 115° Southeast 298 343 26,600 -823 Descending Fort Worth Center
Tue 07:33:56 PM 32.6775 -97.9606 116° Southeast 322 371 25,300 -1,344 Descending Fort Worth Center
Tue 07:34:59 PM 32.6358 -97.8600 116° Southeast 336 387 23,800 -1,488 Descending Fort Worth Center
Tue 07:36:01 PM 32.5922 -97.7533 116° Southeast 329 379 22,200 -1,500 Descending Fort Worth Center
Tue 07:37:03 PM 32.5550 -97.6617 116° Southeast 314 361 20,700 -1,500 Descending Fort Worth Center
Tue 07:38:05 PM 32.5158 -97.5647 116° Southeast 305 351 19,100 -823 Descending Fort Worth Center
Tue 07:39:07 PM 32.4786 -97.4750 116° Southeast 306 352 19,000 -48 Descending Fort Worth Center
Tue 07:40:10 PM 32.4414 -97.3836 116° Southeast 291 335 19,000  Level Fort Worth Center
Tue 07:41:12 PM 32.4081 -97.3017 116° Southeast 281 323 19,000 -339 Level Fort Worth Center
Tue 07:42:14 PM 32.3703 -97.2150 117° Southeast 278 320 18,300 -484 Descending Fort Worth Center
Tue 07:43:16 PM 32.3331 -97.1256 116° Southeast 301 346 18,000 -919 Descending Fort Worth Center
Tue 07:44:18 PM 32.2944 -97.0317 116° Southeast 298 343 16,400 -1,742 Descending Fort Worth Center
Tue 07:45:20 PM 32.2550 -96.9372 116° Southeast 316 364 14,400 -1,935 Descending Fort Worth Center
Tue 07:46:22 PM 32.2158 -96.8450 117° Southeast 325 374 12,400 -2,064 Descending Fort Worth Center
Tue 07:47:25 PM 32.1772 -96.7503 116° Southeast 325 374 10,100 -2,190 Descending Fort Worth Center

Login

Don't have an account? Register now (free) for customized features, flight alerts, and more!